Bonfinopolis, Brazil
Current Conditions -  °F | °C
As of 12:00 PM on Monday 24 Nov 2014 (Local Time) from SBGO Reporting Station
Broken Clouds Broken Clouds  
Wind Chill: 77°   Ceiling: 10000
Heat Index: 79°   Visibility: 6mi
Dew Point: 66°   Wind: 3mph
Humidity: 69%   Direction: 320°NW
Pressure: 30.06"   Gusts: NA
Location:  16.62°S, 48.96°W
Report Text: SBGO 241400Z 32003KT 9999 FEW030 BKN100 25/19 Q1018
Loading
Personal Weather Stations






























Interactive Weather Map New forecast layout! Learn more

10-Day Weather Forecast

Advertisements
Track Severe Weather on mobile